sensor_id;sensor_type;location;lat;lon;timestamp;pressure;altitude;pressure_sealevel;temperature
48894;BMP280;34710;35.798;139.446;2022-08-05T00:01:33;100006.90;;;28.56
48894;BMP280;34710;35.798;139.446;2022-08-05T00:04:02;100009.78;;;28.62
48894;BMP280;34710;35.798;139.446;2022-08-05T00:06:32;100014.24;;;28.34
48894;BMP280;34710;35.798;139.446;2022-08-05T00:09:01;100016.19;;;28.06
48894;BMP280;34710;35.798;139.446;2022-08-05T00:11:30;100015.45;;;28.16
48894;BMP280;34710;35.798;139.446;2022-08-05T00:14:00;100015.15;;;28.09
48894;BMP280;34710;35.798;139.446;2022-08-05T00:16:29;100016.98;;;28.43
48894;BMP280;34710;35.798;139.446;2022-08-05T00:18:58;100021.11;;;28.21
48894;BMP280;34710;35.798;139.446;2022-08-05T00:21:28;100022.29;;;28.42
48894;BMP280;34710;35.798;139.446;2022-08-05T00:23:57;100028.26;;;28.47
48894;BMP280;34710;35.798;139.446;2022-08-05T00:26:27;100029.95;;;28.60
48894;BMP280;34710;35.798;139.446;2022-08-05T00:28:56;100031.54;;;28.59
48894;BMP280;34710;35.798;139.446;2022-08-05T00:31:25;100035.76;;;29.05
48894;BMP280;34710;35.798;139.446;2022-08-05T00:33:55;100042.94;;;28.75
48894;BMP280;34710;35.798;139.446;2022-08-05T00:36:24;100045.88;;;29.01
48894;BMP280;34710;35.798;139.446;2022-08-05T00:38:53;100047.49;;;28.93
48894;BMP280;34710;35.798;139.446;2022-08-05T00:41:31;100049.14;;;29.23
48894;BMP280;34710;35.798;139.446;2022-08-05T00:44:02;100051.04;;;29.03
48894;BMP280;34710;35.798;139.446;2022-08-05T00:46:32;100051.65;;;29.44
48894;BMP280;34710;35.798;139.446;2022-08-05T00:49:01;100052.51;;;29.36
48894;BMP280;34710;35.798;139.446;2022-08-05T00:51:31;100057.52;;;29.17
48894;BMP280;34710;35.798;139.446;2022-08-05T00:54:00;100058.45;;;29.13
48894;BMP280;34710;35.798;139.446;2022-08-05T00:56:29;100056.41;;;29.31
48894;BMP280;34710;35.798;139.446;2022-08-05T00:58:59;100050.14;;;29.36
48894;BMP280;34710;35.798;139.446;2022-08-05T01:01:28;100043.20;;;29.78
48894;BMP280;34710;35.798;139.446;2022-08-05T01:03:57;100035.86;;;29.44
48894;BMP280;34710;35.798;139.446;2022-08-05T01:06:26;100032.94;;;29.66
48894;BMP280;34710;35.798;139.446;2022-08-05T01:08:56;100024.59;;;29.87
48894;BMP280;34710;35.798;139.446;2022-08-05T01:11:31;100020.14;;;30.45
48894;BMP280;34710;35.798;139.446;2022-08-05T01:14:08;100018.77;;;31.24
48894;BMP280;34710;35.798;139.446;2022-08-05T01:16:46;100016.42;;;31.17
48894;BMP280;34710;35.798;139.446;2022-08-05T01:19:33;100012.02;;;31.55
48894;BMP280;34710;35.798;139.446;2022-08-05T01:22:19;100010.65;;;31.88
48894;BMP280;34710;35.798;139.446;2022-08-05T01:25:03;100002.61;;;32.36
48894;BMP280;34710;35.798;139.446;2022-08-05T01:28:13;100004.98;;;32.83
48894;BMP280;34710;35.798;139.446;2022-08-05T01:30:49;100006.90;;;32.78
48894;BMP280;34710;35.798;139.446;2022-08-05T01:33:23;100005.34;;;32.50
48894;BMP280;34710;35.798;139.446;2022-08-05T01:35:55;100003.67;;;32.13
48894;BMP280;34710;35.798;139.446;2022-08-05T01:38:26;100000.38;;;32.40
48894;BMP280;34710;35.798;139.446;2022-08-05T01:40:57;99995.47;;;31.54
48894;BMP280;34710;35.798;139.446;2022-08-05T01:43:28;99998.19;;;31.94
48894;BMP280;34710;35.798;139.446;2022-08-05T01:45:59;99998.21;;;31.28
48894;BMP280;34710;35.798;139.446;2022-08-05T01:48:30;99992.33;;;31.02
48894;BMP280;34710;35.798;139.446;2022-08-05T01:51:05;99990.32;;;31.24
48894;BMP280;34710;35.798;139.446;2022-08-05T01:53:37;99989.70;;;30.68
48894;BMP280;34710;35.798;139.446;2022-08-05T01:56:08;99996.63;;;30.88
48894;BMP280;34710;35.798;139.446;2022-08-05T01:58:39;99998.01;;;31.57
48894;BMP280;34710;35.798;139.446;2022-08-05T02:01:11;99996.17;;;32.29
48894;BMP280;34710;35.798;139.446;2022-08-05T02:03:45;99993.33;;;32.67
48894;BMP280;34710;35.798;139.446;2022-08-05T02:06:16;99994.56;;;32.23
48894;BMP280;34710;35.798;139.446;2022-08-05T02:08:46;100003.42;;;32.65
48894;BMP280;34710;35.798;139.446;2022-08-05T02:11:17;100009.36;;;32.84
48894;BMP280;34710;35.798;139.446;2022-08-05T02:13:53;100005.79;;;32.81
48894;BMP280;34710;35.798;139.446;2022-08-05T02:16:26;100000.07;;;32.77
48894;BMP280;34710;35.798;139.446;2022-08-05T02:18:57;99996.79;;;32.69
48894;BMP280;34710;35.798;139.446;2022-08-05T02:21:32;99999.83;;;32.52
48894;BMP280;34710;35.798;139.446;2022-08-05T02:24:05;100001.48;;;32.73
48894;BMP280;34710;35.798;139.446;2022-08-05T02:26:39;100002.39;;;32.61
48894;BMP280;34710;35.798;139.446;2022-08-05T02:29:12;99999.86;;;32.03
48894;BMP280;34710;35.798;139.446;2022-08-05T02:31:45;99999.63;;;32.27
48894;BMP280;34710;35.798;139.446;2022-08-05T02:34:15;99996.50;;;32.08
48894;BMP280;34710;35.798;139.446;2022-08-05T02:36:50;100000.33;;;32.11
48894;BMP280;34710;35.798;139.446;2022-08-05T02:39:22;100001.80;;;32.03
48894;BMP280;34710;35.798;139.446;2022-08-05T02:41:53;100000.57;;;32.47
48894;BMP280;34710;35.798;139.446;2022-08-05T02:44:24;99997.73;;;32.14
48894;BMP280;34710;35.798;139.446;2022-08-05T02:46:55;99992.32;;;32.24
48894;BMP280;34710;35.798;139.446;2022-08-05T02:49:28;99989.36;;;31.87
48894;BMP280;34710;35.798;139.446;2022-08-05T02:51:59;99983.85;;;31.75
48894;BMP280;34710;35.798;139.446;2022-08-05T02:54:29;99979.57;;;32.44
48894;BMP280;34710;35.798;139.446;2022-08-05T02:56:59;99979.11;;;32.01
48894;BMP280;34710;35.798;139.446;2022-08-05T02:59:29;99971.24;;;32.53
48894;BMP280;34710;35.798;139.446;2022-08-05T03:02:00;99970.18;;;32.19
48894;BMP280;34710;35.798;139.446;2022-08-05T03:04:29;99973.98;;;32.11
48894;BMP280;34710;35.798;139.446;2022-08-05T03:07:00;99977.75;;;33.06
48894;BMP280;34710;35.798;139.446;2022-08-05T03:09:29;99974.06;;;33.09
48894;BMP280;34710;35.798;139.446;2022-08-05T03:11:58;99968.93;;;33.42
48894;BMP280;34710;35.798;139.446;2022-08-05T03:14:28;99959.44;;;33.72
48894;BMP280;34710;35.798;139.446;2022-08-05T03:16:57;99957.21;;;34.03
48894;BMP280;34710;35.798;139.446;2022-08-05T03:19:26;99952.46;;;34.32
48894;BMP280;34710;35.798;139.446;2022-08-05T03:21:55;99949.87;;;33.98
48894;BMP280;34710;35.798;139.446;2022-08-05T03:24:25;99941.72;;;34.19
48894;BMP280;34710;35.798;139.446;2022-08-05T03:26:55;99937.35;;;33.51
48894;BMP280;34710;35.798;139.446;2022-08-05T03:29:25;99937.61;;;33.42
48894;BMP280;34710;35.798;139.446;2022-08-05T03:31:54;99935.25;;;33.10
48894;BMP280;34710;35.798;139.446;2022-08-05T03:34:23;99931.93;;;33.33
48894;BMP280;34710;35.798;139.446;2022-08-05T03:36:53;99924.83;;;33.41
48894;BMP280;34710;35.798;139.446;2022-08-05T03:39:22;99921.48;;;33.21
48894;BMP280;34710;35.798;139.446;2022-08-05T03:41:51;99916.58;;;32.70
48894;BMP280;34710;35.798;139.446;2022-08-05T03:44:21;99914.89;;;32.56
48894;BMP280;34710;35.798;139.446;2022-08-05T03:46:50;99911.88;;;33.19
48894;BMP280;34710;35.798;139.446;2022-08-05T03:49:20;99913.81;;;33.76
48894;BMP280;34710;35.798;139.446;2022-08-05T03:51:53;99908.47;;;32.84
48894;BMP280;34710;35.798;139.446;2022-08-05T03:54:32;99902.77;;;33.03
48894;BMP280;34710;35.798;139.446;2022-08-05T03:57:05;99897.26;;;33.46
48894;BMP280;34710;35.798;139.446;2022-08-05T03:59:41;99891.72;;;33.35
48894;BMP280;34710;35.798;139.446;2022-08-05T04:02:11;99895.58;;;32.97
48894;BMP280;34710;35.798;139.446;2022-08-05T04:04:42;99892.12;;;33.00
48894;BMP280;34710;35.798;139.446;2022-08-05T04:07:13;99888.55;;;33.26
48894;BMP280;34710;35.798;139.446;2022-08-05T04:09:43;99886.24;;;33.03
48894;BMP280;34710;35.798;139.446;2022-08-05T04:12:12;99882.38;;;31.70
48894;BMP280;34710;35.798;139.446;2022-08-05T04:14:43;99883.42;;;31.74
48894;BMP280;34710;35.798;139.446;2022-08-05T04:17:14;99884.31;;;31.67
48894;BMP280;34710;35.798;139.446;2022-08-05T04:19:44;99880.53;;;31.02
48894;BMP280;34710;35.798;139.446;2022-08-05T04:22:14;99869.89;;;31.04
48894;BMP280;34710;35.798;139.446;2022-08-05T04:24:45;99866.66;;;31.67
48894;BMP280;34710;35.798;139.446;2022-08-05T04:27:16;99867.08;;;32.24
48894;BMP280;34710;35.798;139.446;2022-08-05T04:29:45;99864.25;;;32.04
48894;BMP280;34710;35.798;139.446;2022-08-05T04:32:14;99862.43;;;32.22
48894;BMP280;34710;35.798;139.446;2022-08-05T04:34:44;99865.18;;;32.07
48894;BMP280;34710;35.798;139.446;2022-08-05T04:37:13;99865.75;;;31.82
48894;BMP280;34710;35.798;139.446;2022-08-05T04:39:43;99862.80;;;30.94
48894;BMP280;34710;35.798;139.446;2022-08-05T04:42:12;99862.73;;;30.97
48894;BMP280;34710;35.798;139.446;2022-08-05T04:44:42;99865.12;;;31.08
48894;BMP280;34710;35.798;139.446;2022-08-05T04:47:11;99866.35;;;31.87
48894;BMP280;34710;35.798;139.446;2022-08-05T04:49:40;99864.34;;;32.11
48894;BMP280;34710;35.798;139.446;2022-08-05T04:52:10;99864.88;;;31.94
48894;BMP280;34710;35.798;139.446;2022-08-05T04:54:39;99865.97;;;31.94
48894;BMP280;34710;35.798;139.446;2022-08-05T04:57:08;99872.60;;;32.00
48894;BMP280;34710;35.798;139.446;2022-08-05T04:59:38;99870.56;;;32.24
48894;BMP280;34710;35.798;139.446;2022-08-05T05:02:08;99868.90;;;32.25
48894;BMP280;34710;35.798;139.446;2022-08-05T05:04:37;99863.26;;;31.75
48894;BMP280;34710;35.798;139.446;2022-08-05T05:07:07;99861.50;;;32.30
48894;BMP280;34710;35.798;139.446;2022-08-05T05:09:36;99863.17;;;32.14
48894;BMP280;34710;35.798;139.446;2022-08-05T05:12:06;99862.09;;;32.50
48894;BMP280;34710;35.798;139.446;2022-08-05T05:14:36;99859.96;;;32.51
48894;BMP280;34710;35.798;139.446;2022-08-05T05:17:05;99856.72;;;32.23
48894;BMP280;34710;35.798;139.446;2022-08-05T05:19:34;99858.59;;;32.52
48894;BMP280;34710;35.798;139.446;2022-08-05T05:22:04;99856.59;;;31.94
48894;BMP280;34710;35.798;139.446;2022-08-05T05:24:33;99854.67;;;32.22
48894;BMP280;34710;35.798;139.446;2022-08-05T05:27:03;99854.37;;;31.65
48894;BMP280;34710;35.798;139.446;2022-08-05T05:29:33;99856.76;;;31.66
48894;BMP280;34710;35.798;139.446;2022-08-05T05:32:03;99856.48;;;31.98
48894;BMP280;34710;35.798;139.446;2022-08-05T05:34:34;99858.95;;;32.00
48894;BMP280;34710;35.798;139.446;2022-08-05T05:37:03;99855.35;;;32.43
48894;BMP280;34710;35.798;139.446;2022-08-05T05:39:32;99852.57;;;32.41
48894;BMP280;34710;35.798;139.446;2022-08-05T05:42:01;99850.95;;;32.58
48894;BMP280;34710;35.798;139.446;2022-08-05T05:44:31;99850.40;;;32.81
48894;BMP280;34710;35.798;139.446;2022-08-05T05:47:00;99850.01;;;32.90
48894;BMP280;34710;35.798;139.446;2022-08-05T05:49:30;99849.28;;;32.55
48894;BMP280;34710;35.798;139.446;2022-08-05T05:51:59;99841.27;;;32.94
48894;BMP280;34710;35.798;139.446;2022-08-05T05:54:28;99841.68;;;33.37
48894;BMP280;34710;35.798;139.446;2022-08-05T05:56:58;99838.53;;;32.73
48894;BMP280;34710;35.798;139.446;2022-08-05T05:59:27;99839.32;;;31.71
48894;BMP280;34710;35.798;139.446;2022-08-05T06:01:57;99838.32;;;31.62
48894;BMP280;34710;35.798;139.446;2022-08-05T06:04:26;99835.39;;;32.01
48894;BMP280;34710;35.798;139.446;2022-08-05T06:06:55;99836.04;;;32.07
48894;BMP280;34710;35.798;139.446;2022-08-05T06:09:25;99841.95;;;32.38
48894;BMP280;34710;35.798;139.446;2022-08-05T06:11:55;99839.81;;;32.47
48894;BMP280;34710;35.798;139.446;2022-08-05T06:14:24;99841.45;;;31.79
48894;BMP280;34710;35.798;139.446;2022-08-05T06:16:53;99845.40;;;31.48
48894;BMP280;34710;35.798;139.446;2022-08-05T06:19:23;99843.29;;;31.88
48894;BMP280;34710;35.798;139.446;2022-08-05T06:21:52;99839.87;;;32.12
48894;BMP280;34710;35.798;139.446;2022-08-05T06:24:21;99845.38;;;32.98
48894;BMP280;34710;35.798;139.446;2022-08-05T06:26:50;99845.30;;;32.44
48894;BMP280;34710;35.798;139.446;2022-08-05T06:29:21;99848.39;;;32.48
48894;BMP280;34710;35.798;139.446;2022-08-05T06:31:52;99845.30;;;32.26
48894;BMP280;34710;35.798;139.446;2022-08-05T06:34:21;99847.76;;;31.70
48894;BMP280;34710;35.798;139.446;2022-08-05T06:36:51;99849.75;;;32.30
48894;BMP280;34710;35.798;139.446;2022-08-05T06:39:20;99856.42;;;31.83
48894;BMP280;34710;35.798;139.446;2022-08-05T06:41:50;99856.20;;;31.55
48894;BMP280;34710;35.798;139.446;2022-08-05T06:44:19;99853.73;;;31.30
48894;BMP280;34710;35.798;139.446;2022-08-05T06:46:48;99854.46;;;30.63
48894;BMP280;34710;35.798;139.446;2022-08-05T06:49:18;99859.58;;;30.77
48894;BMP280;34710;35.798;139.446;2022-08-05T06:51:47;99865.27;;;30.54
48894;BMP280;34710;35.798;139.446;2022-08-05T06:54:16;99863.35;;;30.73
48894;BMP280;34710;35.798;139.446;2022-08-05T06:56:46;99859.95;;;30.55
48894;BMP280;34710;35.798;139.446;2022-08-05T06:59:15;99859.33;;;29.79
48894;BMP280;34710;35.798;139.446;2022-08-05T07:01:45;99863.00;;;30.23
48894;BMP280;34710;35.798;139.446;2022-08-05T07:04:14;99863.68;;;30.46
48894;BMP280;34710;35.798;139.446;2022-08-05T07:06:43;99864.72;;;30.71
48894;BMP280;34710;35.798;139.446;2022-08-05T07:09:13;99860.24;;;30.68
48894;BMP280;34710;35.798;139.446;2022-08-05T07:11:42;99856.84;;;30.69
48894;BMP280;34710;35.798;139.446;2022-08-05T07:14:11;99859.26;;;30.19
48894;BMP280;34710;35.798;139.446;2022-08-05T07:16:41;99864.72;;;30.27
48894;BMP280;34710;35.798;139.446;2022-08-05T07:19:10;99864.73;;;30.41
48894;BMP280;34710;35.798;139.446;2022-08-05T07:21:40;99868.59;;;29.92
48894;BMP280;34710;35.798;139.446;2022-08-05T07:24:09;99869.19;;;30.67
48894;BMP280;34710;35.798;139.446;2022-08-05T07:26:39;99877.36;;;30.37
48894;BMP280;34710;35.798;139.446;2022-08-05T07:29:09;99883.31;;;30.55
48894;BMP280;34710;35.798;139.446;2022-08-05T07:31:39;99881.72;;;30.42
48894;BMP280;34710;35.798;139.446;2022-08-05T07:34:09;99883.00;;;30.56
48894;BMP280;34710;35.798;139.446;2022-08-05T07:36:38;99873.19;;;30.81
48894;BMP280;34710;35.798;139.446;2022-08-05T07:39:08;99873.37;;;30.26
48894;BMP280;34710;35.798;139.446;2022-08-05T07:41:37;99884.12;;;29.20
48894;BMP280;34710;35.798;139.446;2022-08-05T07:44:08;99887.95;;;29.82
48894;BMP280;34710;35.798;139.446;2022-08-05T07:46:37;99892.00;;;29.60
48894;BMP280;34710;35.798;139.446;2022-08-05T07:49:06;99891.40;;;29.79
48894;BMP280;34710;35.798;139.446;2022-08-05T07:51:37;99890.72;;;29.48
48894;BMP280;34710;35.798;139.446;2022-08-05T07:54:06;99892.47;;;29.47
48894;BMP280;34710;35.798;139.446;2022-08-05T07:56:36;99894.63;;;28.93
48894;BMP280;34710;35.798;139.446;2022-08-05T07:59:05;99893.41;;;29.52
48894;BMP280;34710;35.798;139.446;2022-08-05T08:01:34;99892.34;;;29.72
48894;BMP280;34710;35.798;139.446;2022-08-05T08:04:04;99894.12;;;30.09
48894;BMP280;34710;35.798;139.446;2022-08-05T08:06:33;99894.58;;;29.98
48894;BMP280;34710;35.798;139.446;2022-08-05T08:09:02;99897.22;;;30.04
48894;BMP280;34710;35.798;139.446;2022-08-05T08:11:31;99910.07;;;29.80
48894;BMP280;34710;35.798;139.446;2022-08-05T08:14:01;99909.64;;;30.11
48894;BMP280;34710;35.798;139.446;2022-08-05T08:16:30;99911.62;;;29.47
48894;BMP280;34710;35.798;139.446;2022-08-05T08:19:00;99908.72;;;28.86
48894;BMP280;34710;35.798;139.446;2022-08-05T08:21:29;99906.15;;;29.03
48894;BMP280;34710;35.798;139.446;2022-08-05T08:23:58;99908.28;;;28.94
48894;BMP280;34710;35.798;139.446;2022-08-05T08:26:28;99910.94;;;29.43
48894;BMP280;34710;35.798;139.446;2022-08-05T08:28:59;99914.01;;;29.52
48894;BMP280;34710;35.798;139.446;2022-08-05T08:31:28;99907.41;;;29.59
48894;BMP280;34710;35.798;139.446;2022-08-05T08:33:58;99903.82;;;29.48
48894;BMP280;34710;35.798;139.446;2022-08-05T08:36:27;99910.05;;;28.84
48894;BMP280;34710;35.798;139.446;2022-08-05T08:38:57;99914.93;;;28.92
48894;BMP280;34710;35.798;139.446;2022-08-05T08:41:29;99917.77;;;28.63
48894;BMP280;34710;35.798;139.446;2022-08-05T08:44:01;99921.06;;;28.94
48894;BMP280;34710;35.798;139.446;2022-08-05T08:46:31;99925.09;;;29.13
48894;BMP280;34710;35.798;139.446;2022-08-05T08:49:03;99928.34;;;29.43
48894;BMP280;34710;35.798;139.446;2022-08-05T08:51:34;99928.22;;;29.84
48894;BMP280;34710;35.798;139.446;2022-08-05T08:54:05;99935.70;;;29.58
48894;BMP280;34710;35.798;139.446;2022-08-05T08:56:34;99934.79;;;28.95
48894;BMP280;34710;35.798;139.446;2022-08-05T08:59:05;99935.50;;;28.86
48894;BMP280;34710;35.798;139.446;2022-08-05T09:01:35;99939.77;;;28.13
48894;BMP280;34710;35.798;139.446;2022-08-05T09:04:04;99942.58;;;28.03
48894;BMP280;34710;35.798;139.446;2022-08-05T09:06:33;99943.96;;;27.33
48894;BMP280;34710;35.798;139.446;2022-08-05T09:09:03;99946.74;;;27.32
48894;BMP280;34710;35.798;139.446;2022-08-05T09:11:34;99944.64;;;27.43
48894;BMP280;34710;35.798;139.446;2022-08-05T09:14:04;99946.23;;;27.91
48894;BMP280;34710;35.798;139.446;2022-08-05T09:16:34;99954.08;;;27.92
48894;BMP280;34710;35.798;139.446;2022-08-05T09:19:03;99958.64;;;28.29
48894;BMP280;34710;35.798;139.446;2022-08-05T09:21:36;99963.69;;;28.26
48894;BMP280;34710;35.798;139.446;2022-08-05T09:24:07;99973.41;;;28.32
48894;BMP280;34710;35.798;139.446;2022-08-05T09:26:38;99975.20;;;28.09
48894;BMP280;34710;35.798;139.446;2022-08-05T09:29:08;99977.50;;;28.42
48894;BMP280;34710;35.798;139.446;2022-08-05T09:31:37;99980.65;;;28.86
48894;BMP280;34710;35.798;139.446;2022-08-05T09:34:09;99979.10;;;27.98
48894;BMP280;34710;35.798;139.446;2022-08-05T09:36:41;99977.67;;;27.88
48894;BMP280;34710;35.798;139.446;2022-08-05T09:39:12;99980.16;;;28.42
48894;BMP280;34710;35.798;139.446;2022-08-05T09:41:59;99980.16;;;28.20
48894;BMP280;34710;35.798;139.446;2022-08-05T09:44:37;99980.52;;;28.73
48894;BMP280;34710;35.798;139.446;2022-08-05T09:47:10;99975.28;;;28.76
48894;BMP280;34710;35.798;139.446;2022-08-05T09:49:43;99978.63;;;28.79
48894;BMP280;34710;35.798;139.446;2022-08-05T09:52:21;99981.30;;;28.52
48894;BMP280;34710;35.798;139.446;2022-08-05T09:54:56;99980.49;;;28.50
48894;BMP280;34710;35.798;139.446;2022-08-05T09:57:42;99983.35;;;28.28
48894;BMP280;34710;35.798;139.446;2022-08-05T10:00:14;99985.44;;;28.38
48894;BMP280;34710;35.798;139.446;2022-08-05T10:02:46;99988.08;;;28.40
48894;BMP280;34710;35.798;139.446;2022-08-05T10:05:17;99991.80;;;28.37
48894;BMP280;34710;35.798;139.446;2022-08-05T10:07:50;99993.72;;;28.31
48894;BMP280;34710;35.798;139.446;2022-08-05T10:10:22;99996.54;;;27.23
48894;BMP280;34710;35.798;139.446;2022-08-05T10:12:54;99997.32;;;27.19
48894;BMP280;34710;35.798;139.446;2022-08-05T10:15:25;100004.50;;;27.35
48894;BMP280;34710;35.798;139.446;2022-08-05T10:18:05;100009.05;;;27.70
48894;BMP280;34710;35.798;139.446;2022-08-05T10:20:38;100010.46;;;27.39
48894;BMP280;34710;35.798;139.446;2022-08-05T10:23:09;100012.84;;;27.59
48894;BMP280;34710;35.798;139.446;2022-08-05T10:25:38;100019.82;;;27.60
48894;BMP280;34710;35.798;139.446;2022-08-05T10:28:10;100023.38;;;27.83
48894;BMP280;34710;35.798;139.446;2022-08-05T10:30:39;100025.76;;;28.42
48894;BMP280;34710;35.798;139.446;2022-08-05T10:33:08;100025.57;;;28.28
48894;BMP280;34710;35.798;139.446;2022-08-05T10:35:38;100028.42;;;29.02
48894;BMP280;34710;35.798;139.446;2022-08-05T10:38:08;100025.10;;;28.46
48894;BMP280;34710;35.798;139.446;2022-08-05T10:40:42;100026.18;;;28.61
48894;BMP280;34710;35.798;139.446;2022-08-05T10:43:19;100023.14;;;27.95
48894;BMP280;34710;35.798;139.446;2022-08-05T10:46:00;100020.71;;;28.03
48894;BMP280;34710;35.798;139.446;2022-08-05T10:48:31;100025.26;;;28.30
48894;BMP280;34710;35.798;139.446;2022-08-05T10:51:04;100030.36;;;28.46
48894;BMP280;34710;35.798;139.446;2022-08-05T10:53:37;100036.06;;;28.80
48894;BMP280;34710;35.798;139.446;2022-08-05T10:56:08;100039.12;;;28.84
48894;BMP280;34710;35.798;139.446;2022-08-05T10:58:49;100042.19;;;28.99
48894;BMP280;34710;35.798;139.446;2022-08-05T11:01:29;100042.98;;;28.48
48894;BMP280;34710;35.798;139.446;2022-08-05T11:04:04;100044.30;;;28.25
48894;BMP280;34710;35.798;139.446;2022-08-05T11:06:35;100049.85;;;28.49
48894;BMP280;34710;35.798;139.446;2022-08-05T11:09:37;100049.26;;;28.61
48894;BMP280;34710;35.798;139.446;2022-08-05T11:12:42;100050.64;;;27.87
48894;BMP280;34710;35.798;139.446;2022-08-05T11:15:18;100054.12;;;27.57
48894;BMP280;34710;35.798;139.446;2022-08-05T11:17:49;100051.34;;;27.40
48894;BMP280;34710;35.798;139.446;2022-08-05T11:20:52;100049.60;;;28.17
48894;BMP280;34710;35.798;139.446;2022-08-05T11:23:32;100052.11;;;27.23
48894;BMP280;34710;35.798;139.446;2022-08-05T11:26:04;100052.71;;;28.16
48894;BMP280;34710;35.798;139.446;2022-08-05T11:28:51;100053.31;;;28.44
48894;BMP280;34710;35.798;139.446;2022-08-05T11:31:25;100051.12;;;27.33
48894;BMP280;34710;35.798;139.446;2022-08-05T11:33:57;100051.92;;;25.72
48894;BMP280;34710;35.798;139.446;2022-08-05T11:36:48;100049.65;;;26.24
48894;BMP280;34710;35.798;139.446;2022-08-05T11:39:47;100051.44;;;26.16
48894;BMP280;34710;35.798;139.446;2022-08-05T11:42:21;100056.16;;;27.15
48894;BMP280;34710;35.798;139.446;2022-08-05T11:44:50;100059.58;;;27.52
48894;BMP280;34710;35.798;139.446;2022-08-05T11:47:24;100064.05;;;26.29
48894;BMP280;34710;35.798;139.446;2022-08-05T11:49:57;100067.10;;;25.80
48894;BMP280;34710;35.798;139.446;2022-08-05T11:52:28;100067.75;;;25.70
48894;BMP280;34710;35.798;139.446;2022-08-05T11:54:58;100065.13;;;25.48
48894;BMP280;34710;35.798;139.446;2022-08-05T11:57:29;100065.14;;;25.32
48894;BMP280;34710;35.798;139.446;2022-08-05T11:59:59;100062.98;;;25.90
48894;BMP280;34710;35.798;139.446;2022-08-05T12:02:29;100060.01;;;26.55
48894;BMP280;34710;35.798;139.446;2022-08-05T12:05:00;100059.09;;;26.43
48894;BMP280;34710;35.798;139.446;2022-08-05T12:07:34;100062.68;;;25.72
48894;BMP280;34710;35.798;139.446;2022-08-05T12:10:05;100067.25;;;25.06
48894;BMP280;34710;35.798;139.446;2022-08-05T12:12:36;100067.30;;;25.35
48894;BMP280;34710;35.798;139.446;2022-08-05T12:15:06;100068.80;;;25.17
48894;BMP280;34710;35.798;139.446;2022-08-05T12:17:37;100065.01;;;25.73
48894;BMP280;34710;35.798;139.446;2022-08-05T12:20:07;100060.84;;;26.62
48894;BMP280;34710;35.798;139.446;2022-08-05T12:22:38;100059.45;;;26.08
48894;BMP280;34710;35.798;139.446;2022-08-05T12:25:08;100061.66;;;26.75
48894;BMP280;34710;35.798;139.446;2022-08-05T12:27:37;100063.69;;;27.15
48894;BMP280;34710;35.798;139.446;2022-08-05T12:30:08;100068.04;;;26.51
48894;BMP280;34710;35.798;139.446;2022-08-05T12:32:45;100070.07;;;26.92
48894;BMP280;34710;35.798;139.446;2022-08-05T12:35:15;100073.81;;;27.14
48894;BMP280;34710;35.798;139.446;2022-08-05T12:37:46;100074.77;;;27.66
48894;BMP280;34710;35.798;139.446;2022-08-05T12:40:15;100075.31;;;27.89
48894;BMP280;34710;35.798;139.446;2022-08-05T12:42:46;100081.00;;;27.18
48894;BMP280;34710;35.798;139.446;2022-08-05T12:45:15;100082.34;;;27.46
48894;BMP280;34710;35.798;139.446;2022-08-05T12:47:44;100081.49;;;28.00
48894;BMP280;34710;35.798;139.446;2022-08-05T12:50:15;100081.01;;;28.11
48894;BMP280;34710;35.798;139.446;2022-08-05T12:52:55;100085.37;;;28.03
48894;BMP280;34710;35.798;139.446;2022-08-05T12:55:26;100084.98;;;28.01
48894;BMP280;34710;35.798;139.446;2022-08-05T12:57:58;100081.44;;;28.25
48894;BMP280;34710;35.798;139.446;2022-08-05T13:00:28;100081.64;;;27.77
48894;BMP280;34710;35.798;139.446;2022-08-05T13:02:59;100079.50;;;26.42
48894;BMP280;34710;35.798;139.446;2022-08-05T13:05:28;100073.17;;;27.29
48894;BMP280;34710;35.798;139.446;2022-08-05T13:07:58;100068.85;;;27.01
48894;BMP280;34710;35.798;139.446;2022-08-05T13:10:27;100065.64;;;27.75
48894;BMP280;34710;35.798;139.446;2022-08-05T13:12:59;100070.06;;;27.82
48894;BMP280;34710;35.798;139.446;2022-08-05T13:15:31;100067.99;;;28.18
48894;BMP280;34710;35.798;139.446;2022-08-05T13:18:00;100064.33;;;28.30
48894;BMP280;34710;35.798;139.446;2022-08-05T13:20:34;100062.94;;;28.18
48894;BMP280;34710;35.798;139.446;2022-08-05T13:23:04;100063.85;;;28.46
48894;BMP280;34710;35.798;139.446;2022-08-05T13:25:33;100067.01;;;28.41
48894;BMP280;34710;35.798;139.446;2022-08-05T13:28:03;100068.20;;;28.65
48894;BMP280;34710;35.798;139.446;2022-08-05T13:30:32;100068.55;;;28.64
48894;BMP280;34710;35.798;139.446;2022-08-05T13:33:02;100071.15;;;28.50
48894;BMP280;34710;35.798;139.446;2022-08-05T13:35:32;100074.46;;;28.79
48894;BMP280;34710;35.798;139.446;2022-08-05T13:38:02;100073.78;;;28.07
48894;BMP280;34710;35.798;139.446;2022-08-05T13:40:32;100070.67;;;28.52
48894;BMP280;34710;35.798;139.446;2022-08-05T13:43:01;100068.69;;;28.59
48894;BMP280;34710;35.798;139.446;2022-08-05T13:45:30;100066.79;;;27.76
48894;BMP280;34710;35.798;139.446;2022-08-05T13:48:00;100060.98;;;27.76
48894;BMP280;34710;35.798;139.446;2022-08-05T13:50:29;100057.94;;;27.16
48894;BMP280;34710;35.798;139.446;2022-08-05T13:52:59;100058.92;;;27.25
48894;BMP280;34710;35.798;139.446;2022-08-05T13:55:28;100061.17;;;27.59
48894;BMP280;34710;35.798;139.446;2022-08-05T13:57:57;100060.58;;;26.28
48894;BMP280;34710;35.798;139.446;2022-08-05T14:00:27;100060.55;;;26.08
48894;BMP280;34710;35.798;139.446;2022-08-05T14:02:57;100062.13;;;26.64